Wind Gusting 14 knots
10
November 21, 2017 1:59 PM EST
Weather Information
Wind Direction
  220 °
Wind Speed
  10 kt (12 mph)
Wind Gust
  14 kt (16 mph)
Altimeter
29.95 in
Visibility
10 SM
Temperature
13° C
55° F
Dewpoint
-01° C
30° F
Humidity
38%
Sky Condition
Clear
VFR

METAR KIMS 211859Z AUTO 22010G14KT 10SM CLR 13/M01 A2995 RMK AO1

*Background is not an actual portrayal of the airport.